sensor_id;sensor_type;location;lat;lon;timestamp;P1;durP1;ratioP1;P2;durP2;ratioP2
67508;SDS011;54354;44.724;11.284;2023-12-14T00:00:29;77.28;;;42.85;;
67508;SDS011;54354;44.724;11.284;2023-12-14T00:02:55;86.35;;;43.63;;
67508;SDS011;54354;44.724;11.284;2023-12-14T00:05:21;75.90;;;41.40;;
67508;SDS011;54354;44.724;11.284;2023-12-14T00:07:46;68.90;;;41.92;;
67508;SDS011;54354;44.724;11.284;2023-12-14T00:10:12;86.47;;;43.72;;
67508;SDS011;54354;44.724;11.284;2023-12-14T00:12:38;73.22;;;42.63;;
67508;SDS011;54354;44.724;11.284;2023-12-14T00:15:04;82.15;;;42.10;;
67508;SDS011;54354;44.724;11.284;2023-12-14T00:17:31;79.00;;;43.63;;
67508;SDS011;54354;44.724;11.284;2023-12-14T00:19:56;85.75;;;45.10;;
67508;SDS011;54354;44.724;11.284;2023-12-14T00:22:22;77.43;;;43.00;;
67508;SDS011;54354;44.724;11.284;2023-12-14T00:24:47;79.90;;;42.05;;
67508;SDS011;54354;44.724;11.284;2023-12-14T00:27:13;76.05;;;42.63;;
67508;SDS011;54354;44.724;11.284;2023-12-14T00:29:38;76.50;;;42.50;;
67508;SDS011;54354;44.724;11.284;2023-12-14T00:32:04;77.53;;;42.80;;
67508;SDS011;54354;44.724;11.284;2023-12-14T00:34:30;79.60;;;43.33;;
67508;SDS011;54354;44.724;11.284;2023-12-14T00:36:55;84.53;;;43.03;;
67508;SDS011;54354;44.724;11.284;2023-12-14T00:39:21;81.65;;;43.80;;
67508;SDS011;54354;44.724;11.284;2023-12-14T00:41:46;91.45;;;46.38;;
67508;SDS011;54354;44.724;11.284;2023-12-14T00:44:12;90.20;;;45.50;;
67508;SDS011;54354;44.724;11.284;2023-12-14T00:46:38;95.47;;;46.75;;
67508;SDS011;54354;44.724;11.284;2023-12-14T00:49:03;100.25;;;45.80;;
67508;SDS011;54354;44.724;11.284;2023-12-14T00:51:29;90.03;;;46.90;;
67508;SDS011;54354;44.724;11.284;2023-12-14T00:53:55;93.07;;;47.00;;
67508;SDS011;54354;44.724;11.284;2023-12-14T00:56:20;92.50;;;46.85;;
67508;SDS011;54354;44.724;11.284;2023-12-14T00:58:46;111.25;;;45.60;;
67508;SDS011;54354;44.724;11.284;2023-12-14T01:01:12;92.15;;;45.05;;
67508;SDS011;54354;44.724;11.284;2023-12-14T01:03:37;92.55;;;44.20;;
67508;SDS011;54354;44.724;11.284;2023-12-14T01:06:03;79.50;;;41.20;;
67508;SDS011;54354;44.724;11.284;2023-12-14T01:08:29;74.60;;;39.17;;
67508;SDS011;54354;44.724;11.284;2023-12-14T01:10:54;76.97;;;39.08;;
67508;SDS011;54354;44.724;11.284;2023-12-14T01:13:20;87.72;;;42.90;;
67508;SDS011;54354;44.724;11.284;2023-12-14T01:15:45;90.82;;;44.28;;
67508;SDS011;54354;44.724;11.284;2023-12-14T01:18:11;86.28;;;44.35;;
67508;SDS011;54354;44.724;11.284;2023-12-14T01:20:36;91.40;;;42.17;;
67508;SDS011;54354;44.724;11.284;2023-12-14T01:23:03;93.70;;;43.90;;
67508;SDS011;54354;44.724;11.284;2023-12-14T01:25:29;90.15;;;43.58;;
67508;SDS011;54354;44.724;11.284;2023-12-14T01:27:55;86.57;;;41.95;;
67508;SDS011;54354;44.724;11.284;2023-12-14T01:30:20;87.43;;;40.00;;
67508;SDS011;54354;44.724;11.284;2023-12-14T01:32:46;83.65;;;40.53;;
67508;SDS011;54354;44.724;11.284;2023-12-14T01:35:11;85.97;;;41.40;;
67508;SDS011;54354;44.724;11.284;2023-12-14T01:37:37;77.32;;;39.05;;
67508;SDS011;54354;44.724;11.284;2023-12-14T01:40:03;80.40;;;37.92;;
67508;SDS011;54354;44.724;11.284;2023-12-14T01:42:30;72.35;;;35.30;;
67508;SDS011;54354;44.724;11.284;2023-12-14T01:44:55;62.25;;;32.63;;
67508;SDS011;54354;44.724;11.284;2023-12-14T01:47:21;66.50;;;34.42;;
67508;SDS011;54354;44.724;11.284;2023-12-14T01:49:46;63.35;;;32.40;;
67508;SDS011;54354;44.724;11.284;2023-12-14T01:52:12;67.72;;;33.50;;
67508;SDS011;54354;44.724;11.284;2023-12-14T01:54:37;67.88;;;33.67;;
67508;SDS011;54354;44.724;11.284;2023-12-14T01:57:03;69.85;;;33.63;;
67508;SDS011;54354;44.724;11.284;2023-12-14T01:59:28;61.95;;;32.70;;
67508;SDS011;54354;44.724;11.284;2023-12-14T02:01:54;69.10;;;33.50;;
67508;SDS011;54354;44.724;11.284;2023-12-14T02:04:22;64.03;;;31.92;;
67508;SDS011;54354;44.724;11.284;2023-12-14T02:06:50;69.65;;;33.33;;
67508;SDS011;54354;44.724;11.284;2023-12-14T02:09:15;68.70;;;33.05;;
67508;SDS011;54354;44.724;11.284;2023-12-14T02:11:41;69.40;;;33.67;;
67508;SDS011;54354;44.724;11.284;2023-12-14T02:14:08;78.85;;;35.70;;
67508;SDS011;54354;44.724;11.284;2023-12-14T02:16:34;79.30;;;36.88;;
67508;SDS011;54354;44.724;11.284;2023-12-14T02:19:00;84.00;;;36.20;;
67508;SDS011;54354;44.724;11.284;2023-12-14T02:21:26;83.22;;;35.97;;
67508;SDS011;54354;44.724;11.284;2023-12-14T02:23:51;90.43;;;37.85;;
67508;SDS011;54354;44.724;11.284;2023-12-14T02:26:17;89.80;;;36.67;;
67508;SDS011;54354;44.724;11.284;2023-12-14T02:28:42;80.20;;;36.72;;
67508;SDS011;54354;44.724;11.284;2023-12-14T02:31:08;79.63;;;35.80;;
67508;SDS011;54354;44.724;11.284;2023-12-14T02:33:34;83.57;;;36.22;;
67508;SDS011;54354;44.724;11.284;2023-12-14T02:35:59;86.78;;;36.63;;
67508;SDS011;54354;44.724;11.284;2023-12-14T02:38:25;80.95;;;36.33;;
67508;SDS011;54354;44.724;11.284;2023-12-14T02:40:50;71.03;;;33.13;;
67508;SDS011;54354;44.724;11.284;2023-12-14T02:43:17;72.00;;;34.35;;
67508;SDS011;54354;44.724;11.284;2023-12-14T02:45:46;79.70;;;37.28;;
67508;SDS011;54354;44.724;11.284;2023-12-14T02:48:11;74.93;;;36.30;;
67508;SDS011;54354;44.724;11.284;2023-12-14T02:50:37;82.80;;;38.92;;
67508;SDS011;54354;44.724;11.284;2023-12-14T02:53:03;79.85;;;38.30;;
67508;SDS011;54354;44.724;11.284;2023-12-14T02:55:28;77.35;;;37.42;;
67508;SDS011;54354;44.724;11.284;2023-12-14T02:57:54;74.85;;;37.38;;
67508;SDS011;54354;44.724;11.284;2023-12-14T03:00:19;82.78;;;36.65;;
67508;SDS011;54354;44.724;11.284;2023-12-14T03:02:45;86.15;;;37.35;;
67508;SDS011;54354;44.724;11.284;2023-12-14T03:05:10;79.45;;;37.40;;
67508;SDS011;54354;44.724;11.284;2023-12-14T03:07:36;83.05;;;36.90;;
67508;SDS011;54354;44.724;11.284;2023-12-14T03:10:02;88.43;;;37.17;;
67508;SDS011;54354;44.724;11.284;2023-12-14T03:12:28;76.85;;;35.60;;
67508;SDS011;54354;44.724;11.284;2023-12-14T03:14:53;78.85;;;36.00;;
67508;SDS011;54354;44.724;11.284;2023-12-14T03:17:19;81.47;;;34.63;;
67508;SDS011;54354;44.724;11.284;2023-12-14T03:19:44;80.88;;;35.92;;
67508;SDS011;54354;44.724;11.284;2023-12-14T03:22:10;81.85;;;35.17;;
67508;SDS011;54354;44.724;11.284;2023-12-14T03:24:36;82.85;;;37.05;;
67508;SDS011;54354;44.724;11.284;2023-12-14T03:27:02;88.75;;;37.97;;
67508;SDS011;54354;44.724;11.284;2023-12-14T03:29:28;90.15;;;40.15;;
67508;SDS011;54354;44.724;11.284;2023-12-14T03:31:54;98.55;;;43.22;;
67508;SDS011;54354;44.724;11.284;2023-12-14T03:34:20;99.47;;;43.75;;
67508;SDS011;54354;44.724;11.284;2023-12-14T03:36:46;97.55;;;45.13;;
67508;SDS011;54354;44.724;11.284;2023-12-14T03:39:11;107.75;;;47.00;;
67508;SDS011;54354;44.724;11.284;2023-12-14T03:41:37;104.70;;;45.67;;
67508;SDS011;54354;44.724;11.284;2023-12-14T03:44:02;105.55;;;46.83;;
67508;SDS011;54354;44.724;11.284;2023-12-14T03:46:29;105.72;;;48.90;;
67508;SDS011;54354;44.724;11.284;2023-12-14T03:48:54;115.03;;;49.97;;
67508;SDS011;54354;44.724;11.284;2023-12-14T03:51:20;113.72;;;51.75;;
67508;SDS011;54354;44.724;11.284;2023-12-14T03:53:46;116.15;;;51.80;;
67508;SDS011;54354;44.724;11.284;2023-12-14T03:56:12;124.85;;;55.03;;
67508;SDS011;54354;44.724;11.284;2023-12-14T03:58:38;117.25;;;51.38;;
67508;SDS011;54354;44.724;11.284;2023-12-14T04:01:03;114.68;;;51.85;;
67508;SDS011;54354;44.724;11.284;2023-12-14T04:03:29;118.55;;;52.35;;
67508;SDS011;54354;44.724;11.284;2023-12-14T04:05:55;119.47;;;52.53;;
67508;SDS011;54354;44.724;11.284;2023-12-14T04:08:20;123.65;;;54.35;;
67508;SDS011;54354;44.724;11.284;2023-12-14T04:10:46;121.68;;;53.13;;
67508;SDS011;54354;44.724;11.284;2023-12-14T04:13:11;115.68;;;53.10;;
67508;SDS011;54354;44.724;11.284;2023-12-14T04:15:37;117.05;;;52.22;;
67508;SDS011;54354;44.724;11.284;2023-12-14T04:18:02;120.30;;;53.88;;
67508;SDS011;54354;44.724;11.284;2023-12-14T04:20:28;125.57;;;54.15;;
67508;SDS011;54354;44.724;11.284;2023-12-14T04:22:53;125.00;;;56.35;;
67508;SDS011;54354;44.724;11.284;2023-12-14T04:25:20;125.15;;;53.70;;
67508;SDS011;54354;44.724;11.284;2023-12-14T04:27:45;128.45;;;54.30;;
67508;SDS011;54354;44.724;11.284;2023-12-14T04:30:11;126.18;;;53.95;;
67508;SDS011;54354;44.724;11.284;2023-12-14T04:32:37;133.82;;;54.83;;
67508;SDS011;54354;44.724;11.284;2023-12-14T04:35:03;124.78;;;53.13;;
67508;SDS011;54354;44.724;11.284;2023-12-14T04:37:30;136.68;;;56.42;;
67508;SDS011;54354;44.724;11.284;2023-12-14T04:39:56;126.20;;;52.75;;
67508;SDS011;54354;44.724;11.284;2023-12-14T04:42:22;131.65;;;53.53;;
67508;SDS011;54354;44.724;11.284;2023-12-14T04:44:48;127.75;;;52.13;;
67508;SDS011;54354;44.724;11.284;2023-12-14T04:47:13;128.25;;;54.13;;
67508;SDS011;54354;44.724;11.284;2023-12-14T04:49:39;132.90;;;54.47;;
67508;SDS011;54354;44.724;11.284;2023-12-14T04:52:04;126.47;;;51.33;;
67508;SDS011;54354;44.724;11.284;2023-12-14T04:54:30;140.18;;;54.78;;
67508;SDS011;54354;44.724;11.284;2023-12-14T04:56:56;130.68;;;53.50;;
67508;SDS011;54354;44.724;11.284;2023-12-14T04:59:22;137.30;;;56.22;;
67508;SDS011;54354;44.724;11.284;2023-12-14T05:01:47;122.93;;;51.70;;
67508;SDS011;54354;44.724;11.284;2023-12-14T05:04:13;125.22;;;51.20;;
67508;SDS011;54354;44.724;11.284;2023-12-14T05:06:38;122.25;;;50.80;;
67508;SDS011;54354;44.724;11.284;2023-12-14T05:09:04;122.63;;;50.83;;
67508;SDS011;54354;44.724;11.284;2023-12-14T05:11:31;128.05;;;53.17;;
67508;SDS011;54354;44.724;11.284;2023-12-14T05:13:56;134.55;;;52.92;;
67508;SDS011;54354;44.724;11.284;2023-12-14T05:16:22;130.15;;;53.00;;
67508;SDS011;54354;44.724;11.284;2023-12-14T05:18:52;127.00;;;51.40;;
67508;SDS011;54354;44.724;11.284;2023-12-14T05:21:18;135.77;;;54.40;;
67508;SDS011;54354;44.724;11.284;2023-12-14T05:23:44;141.00;;;56.13;;
67508;SDS011;54354;44.724;11.284;2023-12-14T05:26:09;137.35;;;52.50;;
67508;SDS011;54354;44.724;11.284;2023-12-14T05:28:35;136.38;;;53.40;;
67508;SDS011;54354;44.724;11.284;2023-12-14T05:31:00;146.43;;;54.55;;
67508;SDS011;54354;44.724;11.284;2023-12-14T05:33:26;150.23;;;55.38;;
67508;SDS011;54354;44.724;11.284;2023-12-14T05:35:51;138.43;;;52.78;;
67508;SDS011;54354;44.724;11.284;2023-12-14T05:38:17;152.88;;;56.17;;
67508;SDS011;54354;44.724;11.284;2023-12-14T05:40:42;151.13;;;53.92;;
67508;SDS011;54354;44.724;11.284;2023-12-14T05:43:09;144.05;;;52.65;;
67508;SDS011;54354;44.724;11.284;2023-12-14T05:45:35;142.43;;;52.85;;
67508;SDS011;54354;44.724;11.284;2023-12-14T05:48:01;143.27;;;52.60;;
67508;SDS011;54354;44.724;11.284;2023-12-14T05:50:27;137.43;;;52.03;;
67508;SDS011;54354;44.724;11.284;2023-12-14T05:52:53;136.48;;;51.83;;
67508;SDS011;54354;44.724;11.284;2023-12-14T05:55:19;141.07;;;51.88;;
67508;SDS011;54354;44.724;11.284;2023-12-14T05:57:47;135.85;;;50.00;;
67508;SDS011;54354;44.724;11.284;2023-12-14T06:00:15;145.73;;;52.35;;
67508;SDS011;54354;44.724;11.284;2023-12-14T06:02:42;134.68;;;50.03;;
67508;SDS011;54354;44.724;11.284;2023-12-14T06:05:08;133.95;;;51.08;;
67508;SDS011;54354;44.724;11.284;2023-12-14T06:07:33;131.57;;;47.67;;
67508;SDS011;54354;44.724;11.284;2023-12-14T06:09:59;129.15;;;47.67;;
67508;SDS011;54354;44.724;11.284;2023-12-14T06:12:26;129.85;;;48.25;;
67508;SDS011;54354;44.724;11.284;2023-12-14T06:14:52;123.70;;;47.70;;
67508;SDS011;54354;44.724;11.284;2023-12-14T06:17:17;118.88;;;47.30;;
67508;SDS011;54354;44.724;11.284;2023-12-14T06:19:43;122.70;;;47.50;;
67508;SDS011;54354;44.724;11.284;2023-12-14T06:22:08;110.97;;;45.03;;
67508;SDS011;54354;44.724;11.284;2023-12-14T06:24:34;106.95;;;44.45;;
67508;SDS011;54354;44.724;11.284;2023-12-14T06:27:00;99.45;;;42.45;;
67508;SDS011;54354;44.724;11.284;2023-12-14T06:29:25;93.55;;;41.20;;
67508;SDS011;54354;44.724;11.284;2023-12-14T06:31:51;98.38;;;41.58;;
67508;SDS011;54354;44.724;11.284;2023-12-14T06:34:16;93.55;;;41.92;;
67508;SDS011;54354;44.724;11.284;2023-12-14T06:36:42;93.18;;;39.88;;
67508;SDS011;54354;44.724;11.284;2023-12-14T06:39:10;94.03;;;39.25;;
67508;SDS011;54354;44.724;11.284;2023-12-14T06:41:36;89.88;;;40.58;;
67508;SDS011;54354;44.724;11.284;2023-12-14T06:44:02;90.25;;;41.65;;
67508;SDS011;54354;44.724;11.284;2023-12-14T06:46:28;92.63;;;40.95;;
67508;SDS011;54354;44.724;11.284;2023-12-14T06:48:53;92.13;;;41.58;;
67508;SDS011;54354;44.724;11.284;2023-12-14T06:53:49;96.10;;;42.67;;
67508;SDS011;54354;44.724;11.284;2023-12-14T06:56:16;86.97;;;40.78;;
67508;SDS011;54354;44.724;11.284;2023-12-14T06:58:43;87.07;;;40.95;;
67508;SDS011;54354;44.724;11.284;2023-12-14T07:01:13;88.63;;;40.75;;
67508;SDS011;54354;44.724;11.284;2023-12-14T07:03:43;88.63;;;43.20;;
67508;SDS011;54354;44.724;11.284;2023-12-14T07:06:12;95.28;;;41.17;;
67508;SDS011;54354;44.724;11.284;2023-12-14T07:08:39;89.55;;;42.55;;
67508;SDS011;54354;44.724;11.284;2023-12-14T07:11:06;90.80;;;41.63;;
67508;SDS011;54354;44.724;11.284;2023-12-14T07:13:32;84.90;;;41.38;;
67508;SDS011;54354;44.724;11.284;2023-12-14T07:15:58;83.30;;;41.28;;
67508;SDS011;54354;44.724;11.284;2023-12-14T07:18:24;93.40;;;44.35;;
67508;SDS011;54354;44.724;11.284;2023-12-14T07:20:49;84.70;;;40.88;;
67508;SDS011;54354;44.724;11.284;2023-12-14T07:23:15;92.72;;;42.75;;
67508;SDS011;54354;44.724;11.284;2023-12-14T07:25:40;83.10;;;41.60;;
67508;SDS011;54354;44.724;11.284;2023-12-14T07:28:06;89.55;;;41.92;;
67508;SDS011;54354;44.724;11.284;2023-12-14T07:30:32;89.53;;;41.03;;
67508;SDS011;54354;44.724;11.284;2023-12-14T07:32:57;87.38;;;42.63;;
67508;SDS011;54354;44.724;11.284;2023-12-14T07:35:23;90.78;;;42.97;;
67508;SDS011;54354;44.724;11.284;2023-12-14T07:37:48;87.90;;;43.13;;
67508;SDS011;54354;44.724;11.284;2023-12-14T07:40:14;86.90;;;42.30;;
67508;SDS011;54354;44.724;11.284;2023-12-14T07:42:39;85.65;;;43.70;;
67508;SDS011;54354;44.724;11.284;2023-12-14T07:45:05;85.18;;;43.70;;
67508;SDS011;54354;44.724;11.284;2023-12-14T07:47:31;91.88;;;45.55;;
67508;SDS011;54354;44.724;11.284;2023-12-14T07:49:57;88.60;;;43.85;;
67508;SDS011;54354;44.724;11.284;2023-12-14T07:52:22;81.90;;;43.63;;
67508;SDS011;54354;44.724;11.284;2023-12-14T07:54:48;79.90;;;43.22;;
67508;SDS011;54354;44.724;11.284;2023-12-14T07:57:13;75.72;;;42.47;;
67508;SDS011;54354;44.724;11.284;2023-12-14T07:59:39;79.00;;;41.92;;
67508;SDS011;54354;44.724;11.284;2023-12-14T08:02:05;78.53;;;42.10;;
67508;SDS011;54354;44.724;11.284;2023-12-14T08:04:30;73.20;;;42.38;;
67508;SDS011;54354;44.724;11.284;2023-12-14T08:06:56;77.43;;;41.60;;
67508;SDS011;54354;44.724;11.284;2023-12-14T08:09:22;80.15;;;42.38;;
67508;SDS011;54354;44.724;11.284;2023-12-14T08:11:48;76.10;;;41.65;;
67508;SDS011;54354;44.724;11.284;2023-12-14T08:14:13;78.13;;;41.78;;
67508;SDS011;54354;44.724;11.284;2023-12-14T08:16:39;74.00;;;41.85;;
67508;SDS011;54354;44.724;11.284;2023-12-14T08:19:04;71.50;;;41.80;;
67508;SDS011;54354;44.724;11.284;2023-12-14T08:21:30;68.85;;;40.75;;
67508;SDS011;54354;44.724;11.284;2023-12-14T08:23:56;70.97;;;41.08;;
67508;SDS011;54354;44.724;11.284;2023-12-14T08:26:21;71.53;;;42.67;;
67508;SDS011;54354;44.724;11.284;2023-12-14T08:28:47;72.63;;;42.55;;
67508;SDS011;54354;44.724;11.284;2023-12-14T08:31:12;68.95;;;39.83;;
67508;SDS011;54354;44.724;11.284;2023-12-14T08:33:38;72.40;;;40.53;;
67508;SDS011;54354;44.724;11.284;2023-12-14T08:36:06;71.32;;;39.95;;
67508;SDS011;54354;44.724;11.284;2023-12-14T08:38:32;81.80;;;45.22;;
67508;SDS011;54354;44.724;11.284;2023-12-14T08:40:58;76.38;;;42.92;;
67508;SDS011;54354;44.724;11.284;2023-12-14T08:43:24;72.22;;;42.65;;
67508;SDS011;54354;44.724;11.284;2023-12-14T08:45:50;75.80;;;40.95;;
67508;SDS011;54354;44.724;11.284;2023-12-14T08:48:15;72.95;;;40.67;;
67508;SDS011;54354;44.724;11.284;2023-12-14T08:50:41;79.50;;;42.88;;
67508;SDS011;54354;44.724;11.284;2023-12-14T08:53:06;71.95;;;41.03;;
67508;SDS011;54354;44.724;11.284;2023-12-14T08:55:33;73.20;;;40.63;;
67508;SDS011;54354;44.724;11.284;2023-12-14T08:57:58;68.32;;;41.15;;
67508;SDS011;54354;44.724;11.284;2023-12-14T09:00:24;69.90;;;42.22;;
67508;SDS011;54354;44.724;11.284;2023-12-14T09:02:50;64.70;;;40.60;;
67508;SDS011;54354;44.724;11.284;2023-12-14T09:05:15;66.57;;;41.20;;
67508;SDS011;54354;44.724;11.284;2023-12-14T09:07:42;66.93;;;42.13;;
67508;SDS011;54354;44.724;11.284;2023-12-14T09:10:08;70.70;;;42.33;;
67508;SDS011;54354;44.724;11.284;2023-12-14T09:12:34;70.00;;;42.40;;
67508;SDS011;54354;44.724;11.284;2023-12-14T09:15:00;67.93;;;41.95;;
67508;SDS011;54354;44.724;11.284;2023-12-14T09:17:26;69.28;;;40.65;;
67508;SDS011;54354;44.724;11.284;2023-12-14T09:19:58;66.50;;;42.03;;
67508;SDS011;54354;44.724;11.284;2023-12-14T09:22:24;64.82;;;40.92;;
67508;SDS011;54354;44.724;11.284;2023-12-14T09:24:50;66.85;;;41.85;;
67508;SDS011;54354;44.724;11.284;2023-12-14T09:27:15;69.03;;;42.35;;
67508;SDS011;54354;44.724;11.284;2023-12-14T09:29:41;72.50;;;44.97;;
67508;SDS011;54354;44.724;11.284;2023-12-14T09:32:09;72.68;;;44.90;;
67508;SDS011;54354;44.724;11.284;2023-12-14T09:34:35;83.68;;;47.90;;
67508;SDS011;54354;44.724;11.284;2023-12-14T09:37:01;80.28;;;47.88;;
67508;SDS011;54354;44.724;11.284;2023-12-14T09:39:27;84.90;;;48.97;;
67508;SDS011;54354;44.724;11.284;2023-12-14T09:42:04;86.47;;;50.00;;
67508;SDS011;54354;44.724;11.284;2023-12-14T09:44:33;84.68;;;49.60;;
67508;SDS011;54354;44.724;11.284;2023-12-14T09:47:00;86.32;;;50.60;;
67508;SDS011;54354;44.724;11.284;2023-12-14T09:49:28;89.68;;;50.05;;
67508;SDS011;54354;44.724;11.284;2023-12-14T09:51:57;81.65;;;49.40;;
67508;SDS011;54354;44.724;11.284;2023-12-14T09:54:24;89.45;;;51.80;;
67508;SDS011;54354;44.724;11.284;2023-12-14T09:56:53;93.47;;;52.70;;
67508;SDS011;54354;44.724;11.284;2023-12-14T09:59:19;91.38;;;51.22;;
67508;SDS011;54354;44.724;11.284;2023-12-14T10:01:45;91.32;;;51.72;;
67508;SDS011;54354;44.724;11.284;2023-12-14T10:04:12;96.05;;;55.25;;
67508;SDS011;54354;44.724;11.284;2023-12-14T10:06:41;103.93;;;56.20;;
67508;SDS011;54354;44.724;11.284;2023-12-14T10:09:14;96.75;;;56.05;;
67508;SDS011;54354;44.724;11.284;2023-12-14T10:11:43;95.45;;;55.67;;
67508;SDS011;54354;44.724;11.284;2023-12-14T10:16:46;98.85;;;57.65;;
67508;SDS011;54354;44.724;11.284;2023-12-14T10:19:12;101.05;;;58.03;;
67508;SDS011;54354;44.724;11.284;2023-12-14T10:21:38;102.15;;;59.28;;
67508;SDS011;54354;44.724;11.284;2023-12-14T10:24:03;101.38;;;57.65;;
67508;SDS011;54354;44.724;11.284;2023-12-14T10:26:31;102.45;;;59.75;;
67508;SDS011;54354;44.724;11.284;2023-12-14T10:28:56;95.43;;;57.30;;
67508;SDS011;54354;44.724;11.284;2023-12-14T10:31:22;112.65;;;62.03;;
67508;SDS011;54354;44.724;11.284;2023-12-14T10:33:49;99.68;;;59.47;;
67508;SDS011;54354;44.724;11.284;2023-12-14T10:36:18;102.30;;;59.17;;
67508;SDS011;54354;44.724;11.284;2023-12-14T10:38:48;103.47;;;58.60;;
67508;SDS011;54354;44.724;11.284;2023-12-14T10:41:16;103.82;;;58.72;;
67508;SDS011;54354;44.724;11.284;2023-12-14T10:43:43;100.78;;;57.33;;
67508;SDS011;54354;44.724;11.284;2023-12-14T10:46:09;102.07;;;59.88;;
67508;SDS011;54354;44.724;11.284;2023-12-14T10:48:35;106.63;;;60.72;;
67508;SDS011;54354;44.724;11.284;2023-12-14T10:51:07;103.88;;;59.85;;
67508;SDS011;54354;44.724;11.284;2023-12-14T10:53:37;105.15;;;63.20;;
67508;SDS011;54354;44.724;11.284;2023-12-14T10:56:04;106.43;;;59.22;;
67508;SDS011;54354;44.724;11.284;2023-12-14T10:58:44;104.15;;;60.88;;
67508;SDS011;54354;44.724;11.284;2023-12-14T11:01:13;106.20;;;60.25;;
67508;SDS011;54354;44.724;11.284;2023-12-14T11:03:40;100.53;;;58.50;;
67508;SDS011;54354;44.724;11.284;2023-12-14T11:11:27;99.45;;;56.95;;
67508;SDS011;54354;44.724;11.284;2023-12-14T11:13:53;92.32;;;55.33;;
67508;SDS011;54354;44.724;11.284;2023-12-14T11:16:20;93.97;;;54.22;;
67508;SDS011;54354;44.724;11.284;2023-12-14T11:18:46;98.00;;;55.08;;
67508;SDS011;54354;44.724;11.284;2023-12-14T11:21:17;92.53;;;53.95;;
67508;SDS011;54354;44.724;11.284;2023-12-14T11:23:45;94.97;;;53.83;;
67508;SDS011;54354;44.724;11.284;2023-12-14T11:26:10;94.20;;;54.30;;
67508;SDS011;54354;44.724;11.284;2023-12-14T11:28:37;89.78;;;53.40;;
67508;SDS011;54354;44.724;11.284;2023-12-14T11:31:04;96.68;;;53.85;;
67508;SDS011;54354;44.724;11.284;2023-12-14T11:33:34;92.60;;;54.55;;
67508;SDS011;54354;44.724;11.284;2023-12-14T11:36:01;90.40;;;51.05;;
67508;SDS011;54354;44.724;11.284;2023-12-14T11:38:28;84.82;;;48.08;;
67508;SDS011;54354;44.724;11.284;2023-12-14T11:40:54;75.63;;;47.00;;
67508;SDS011;54354;44.724;11.284;2023-12-14T11:43:20;77.63;;;47.85;;
67508;SDS011;54354;44.724;11.284;2023-12-14T11:45:46;82.88;;;47.08;;
67508;SDS011;54354;44.724;11.284;2023-12-14T11:48:13;72.03;;;42.60;;
67508;SDS011;54354;44.724;11.284;2023-12-14T11:50:39;63.35;;;39.70;;
67508;SDS011;54354;44.724;11.284;2023-12-14T11:53:06;67.82;;;40.10;;
67508;SDS011;54354;44.724;11.284;2023-12-14T11:55:36;67.90;;;40.80;;
67508;SDS011;54354;44.724;11.284;2023-12-14T11:58:04;66.32;;;40.83;;
67508;SDS011;54354;44.724;11.284;2023-12-14T12:00:30;62.67;;;39.38;;
67508;SDS011;54354;44.724;11.284;2023-12-14T12:03:12;68.40;;;42.00;;
67508;SDS011;54354;44.724;11.284;2023-12-14T12:05:43;69.40;;;43.17;;
67508;SDS011;54354;44.724;11.284;2023-12-14T12:08:13;68.35;;;43.03;;
67508;SDS011;54354;44.724;11.284;2023-12-14T12:10:40;69.25;;;42.45;;
67508;SDS011;54354;44.724;11.284;2023-12-14T12:13:07;68.45;;;43.70;;
67508;SDS011;54354;44.724;11.284;2023-12-14T12:15:36;68.77;;;42.47;;
67508;SDS011;54354;44.724;11.284;2023-12-14T12:18:06;67.03;;;43.55;;
67508;SDS011;54354;44.724;11.284;2023-12-14T12:20:33;68.65;;;43.83;;
67508;SDS011;54354;44.724;11.284;2023-12-14T12:23:01;68.40;;;42.53;;
67508;SDS011;54354;44.724;11.284;2023-12-14T12:25:28;70.85;;;43.80;;
67508;SDS011;54354;44.724;11.284;2023-12-14T12:27:57;65.70;;;42.10;;
67508;SDS011;54354;44.724;11.284;2023-12-14T12:30:24;62.60;;;40.58;;
67508;SDS011;54354;44.724;11.284;2023-12-14T12:32:49;64.65;;;41.28;;
67508;SDS011;54354;44.724;11.284;2023-12-14T12:35:20;64.28;;;41.67;;
67508;SDS011;54354;44.724;11.284;2023-12-14T12:37:47;67.07;;;40.70;;
67508;SDS011;54354;44.724;11.284;2023-12-14T12:40:21;64.80;;;41.40;;
67508;SDS011;54354;44.724;11.284;2023-12-14T12:42:48;70.38;;;45.17;;
67508;SDS011;54354;44.724;11.284;2023-12-14T12:45:15;68.45;;;45.30;;
67508;SDS011;54354;44.724;11.284;2023-12-14T12:47:42;72.93;;;44.97;;
67508;SDS011;54354;44.724;11.284;2023-12-14T12:50:08;65.55;;;43.40;;
67508;SDS011;54354;44.724;11.284;2023-12-14T12:52:34;63.67;;;43.08;;
67508;SDS011;54354;44.724;11.284;2023-12-14T12:55:00;69.38;;;45.40;;
67508;SDS011;54354;44.724;11.284;2023-12-14T12:57:27;67.55;;;43.78;;
67508;SDS011;54354;44.724;11.284;2023-12-14T12:59:52;72.55;;;45.78;;
67508;SDS011;54354;44.724;11.284;2023-12-14T13:02:18;73.03;;;46.20;;
67508;SDS011;54354;44.724;11.284;2023-12-14T13:04:44;75.72;;;46.78;;
67508;SDS011;54354;44.724;11.284;2023-12-14T13:07:09;70.10;;;45.63;;
67508;SDS011;54354;44.724;11.284;2023-12-14T13:09:37;65.43;;;44.13;;
67508;SDS011;54354;44.724;11.284;2023-12-14T13:12:04;66.22;;;43.75;;
67508;SDS011;54354;44.724;11.284;2023-12-14T13:14:29;69.03;;;44.08;;
67508;SDS011;54354;44.724;11.284;2023-12-14T13:16:56;63.13;;;41.97;;
67508;SDS011;54354;44.724;11.284;2023-12-14T13:19:24;62.85;;;42.05;;
67508;SDS011;54354;44.724;11.284;2023-12-14T13:21:51;64.75;;;43.83;;
67508;SDS011;54354;44.724;11.284;2023-12-14T13:24:17;69.53;;;45.60;;
67508;SDS011;54354;44.724;11.284;2023-12-14T13:26:42;72.70;;;45.75;;
67508;SDS011;54354;44.724;11.284;2023-12-14T13:29:08;77.28;;;47.38;;
67508;SDS011;54354;44.724;11.284;2023-12-14T13:31:33;75.10;;;47.60;;
67508;SDS011;54354;44.724;11.284;2023-12-14T13:33:59;81.50;;;49.70;;
67508;SDS011;54354;44.724;11.284;2023-12-14T13:36:25;76.15;;;49.13;;
67508;SDS011;54354;44.724;11.284;2023-12-14T13:38:50;72.93;;;47.00;;
67508;SDS011;54354;44.724;11.284;2023-12-14T13:41:16;77.00;;;48.90;;
67508;SDS011;54354;44.724;11.284;2023-12-14T13:43:42;77.82;;;47.65;;
67508;SDS011;54354;44.724;11.284;2023-12-14T13:46:13;77.72;;;49.17;;
67508;SDS011;54354;44.724;11.284;2023-12-14T13:48:39;80.72;;;50.72;;
67508;SDS011;54354;44.724;11.284;2023-12-14T13:51:06;84.13;;;49.35;;
67508;SDS011;54354;44.724;11.284;2023-12-14T13:53:33;80.38;;;49.40;;
67508;SDS011;54354;44.724;11.284;2023-12-14T13:55:58;85.93;;;51.78;;
67508;SDS011;54354;44.724;11.284;2023-12-14T13:58:24;88.95;;;52.35;;
67508;SDS011;54354;44.724;11.284;2023-12-14T14:00:50;89.45;;;51.80;;
67508;SDS011;54354;44.724;11.284;2023-12-14T14:03:15;82.00;;;52.47;;
67508;SDS011;54354;44.724;11.284;2023-12-14T14:05:41;81.50;;;50.17;;
67508;SDS011;54354;44.724;11.284;2023-12-14T14:08:09;86.13;;;50.72;;
67508;SDS011;54354;44.724;11.284;2023-12-14T14:10:34;80.97;;;51.05;;